createdAt,value
2018-11-29T00:00:09.671Z,1.23
2018-11-29T00:02:37.903Z,1.35
2018-11-29T00:05:06.840Z,1.35
2018-11-29T00:07:35.704Z,1.34
2018-11-29T00:10:03.940Z,1.34
2018-11-29T00:12:32.225Z,1.34
2018-11-29T00:15:00.404Z,1.31
2018-11-29T00:17:29.676Z,1.31
2018-11-29T00:19:57.878Z,1.29
2018-11-29T00:22:26.027Z,1.32
2018-11-29T00:24:54.203Z,1.32
2018-11-29T00:27:22.583Z,1.34
2018-11-29T00:29:50.901Z,1.32
2018-11-29T00:32:19.327Z,1.29
2018-11-29T00:34:47.604Z,1.13
2018-11-29T00:37:15.906Z,1.04
2018-11-29T00:39:44.274Z,0.97
2018-11-29T00:42:12.507Z,0.94
2018-11-29T00:44:40.668Z,0.92
2018-11-29T00:47:08.900Z,0.91
2018-11-29T00:49:37.241Z,0.92
2018-11-29T00:52:05.437Z,0.84
2018-11-29T00:54:33.659Z,0.88
2018-11-29T00:57:01.832Z,0.88
2018-11-29T00:59:30.227Z,0.87
2018-11-29T01:02:00.272Z,0.91
2018-11-29T01:04:29.084Z,0.88
2018-11-29T01:06:57.381Z,0.91
2018-11-29T01:09:25.520Z,0.92
2018-11-29T01:11:53.698Z,0.87
2018-11-29T01:14:21.989Z,0.87
2018-11-29T01:16:50.145Z,0.89
2018-11-29T01:19:18.336Z,0.89
2018-11-29T01:21:46.517Z,0.88
2018-11-29T01:24:14.809Z,0.92
2018-11-29T01:26:49.697Z,0.89
2018-11-29T01:29:17.855Z,0.88
2018-11-29T01:31:46.172Z,0.92
2018-11-29T01:34:14.447Z,0.93
2018-11-29T01:36:42.625Z,0.98
2018-11-29T01:39:10.794Z,0.99
2018-11-29T01:41:39.004Z,1.00
2018-11-29T01:44:09.860Z,1.06
2018-11-29T01:46:38.017Z,1.03
2018-11-29T01:49:06.173Z,1.07
2018-11-29T01:51:34.381Z,1.11
2018-11-29T01:54:02.748Z,1.08
2018-11-29T01:56:30.915Z,1.11
2018-11-29T01:58:59.272Z,0.72
2018-11-29T02:01:27.434Z,1.12
2018-11-29T02:03:55.583Z,1.09
2018-11-29T02:06:24.102Z,1.10
2018-11-29T02:08:52.262Z,1.09
2018-11-29T02:11:20.552Z,1.11
2018-11-29T02:13:48.711Z,1.07
2018-11-29T02:16:17.039Z,1.02
2018-11-29T02:18:47.470Z,1.02
2018-11-29T02:21:15.743Z,1.00
2018-11-29T02:23:43.990Z,1.06
2018-11-29T02:26:12.165Z,1.09
2018-11-29T02:28:45.752Z,1.09
2018-11-29T02:31:14.342Z,1.10
2018-11-29T02:33:42.512Z,1.09
2018-11-29T02:36:10.808Z,1.06
2018-11-29T02:38:39.073Z,1.08
2018-11-29T02:41:07.291Z,1.12
2018-11-29T02:43:35.844Z,1.15
2018-11-29T02:46:04.083Z,1.16
2018-11-29T02:48:32.329Z,1.15
2018-11-29T02:51:00.481Z,1.17
2018-11-29T02:53:28.757Z,1.15
2018-11-29T02:56:03.152Z,1.18
2018-11-29T02:58:31.341Z,1.19
2018-11-29T03:00:59.717Z,1.20
2018-11-29T03:03:27.900Z,1.21
2018-11-29T03:05:56.077Z,1.17
2018-11-29T03:08:24.246Z,1.13
2018-11-29T03:10:52.399Z,1.18
2018-11-29T03:13:21.126Z,1.20
2018-11-29T03:15:49.326Z,1.18
2018-11-29T03:18:17.489Z,1.11
2018-11-29T03:20:45.926Z,1.01
2018-11-29T03:23:14.197Z,0.97
2018-11-29T03:25:42.541Z,0.92
2018-11-29T03:28:10.744Z,0.90
2018-11-29T03:30:38.993Z,0.86
2018-11-29T03:33:07.177Z,0.83
2018-11-29T03:35:35.556Z,0.83
2018-11-29T03:38:03.893Z,0.82
2018-11-29T03:40:32.063Z,0.78
2018-11-29T03:43:00.221Z,0.85
2018-11-29T03:45:28.402Z,0.83
2018-11-29T03:47:56.682Z,0.88
2018-11-29T03:50:24.845Z,0.86
2018-11-29T03:52:53.135Z,0.86
2018-11-29T03:55:21.479Z,0.88
2018-11-29T03:57:49.866Z,0.89
2018-11-29T04:00:18.448Z,0.92
2018-11-29T04:02:47.377Z,0.96
2018-11-29T04:05:15.543Z,1.00
2018-11-29T04:07:43.735Z,1.01
2018-11-29T04:10:12.884Z,1.09
2018-11-29T04:12:41.246Z,1.06
2018-11-29T04:15:10.598Z,1.12
2018-11-29T04:17:40.837Z,1.12
2018-11-29T04:20:08.846Z,1.09
2018-11-29T04:22:37.048Z,1.10
2018-11-29T04:25:05.971Z,1.04
2018-11-29T04:27:34.125Z,0.99
2018-11-29T04:30:02.296Z,0.90
2018-11-29T04:32:30.456Z,0.86
2018-11-29T04:34:58.617Z,0.77
2018-11-29T04:37:26.815Z,0.82
2018-11-29T04:39:54.953Z,0.73
2018-11-29T04:42:23.181Z,0.73
2018-11-29T04:44:51.598Z,0.70
2018-11-29T04:47:19.757Z,0.68
2018-11-29T04:49:48.001Z,0.71
2018-11-29T04:52:16.313Z,0.69
2018-11-29T04:54:44.494Z,0.70
2018-11-29T04:57:12.752Z,0.76
2018-11-29T04:59:40.917Z,0.74
2018-11-29T05:02:09.071Z,0.70
2018-11-29T05:04:37.292Z,0.68
2018-11-29T05:07:05.478Z,0.58
2018-11-29T05:09:33.662Z,0.68
2018-11-29T05:12:01.840Z,0.66
2018-11-29T05:14:30.147Z,0.70
2018-11-29T05:16:58.329Z,0.63
2018-11-29T05:19:26.633Z,0.65
2018-11-29T05:21:55.046Z,0.69
2018-11-29T05:24:23.246Z,0.62
2018-11-29T05:26:51.566Z,0.67
2018-11-29T05:29:19.713Z,0.66
2018-11-29T05:31:47.932Z,0.64
2018-11-29T05:34:16.058Z,0.67
2018-11-29T05:36:44.354Z,0.65
2018-11-29T05:39:12.553Z,0.63
2018-11-29T05:41:40.789Z,0.66
2018-11-29T05:44:08.968Z,0.67
2018-11-29T05:46:37.159Z,0.71
2018-11-29T05:49:05.310Z,0.69
2018-11-29T05:51:33.914Z,0.68
2018-11-29T05:54:02.065Z,0.68
2018-11-29T05:56:30.314Z,0.64
2018-11-29T05:58:58.480Z,0.59
2018-11-29T06:01:30.390Z,0.49
2018-11-29T06:03:58.539Z,0.60
2018-11-29T06:06:26.779Z,0.61
2018-11-29T06:08:55.036Z,0.56
2018-11-29T06:11:23.409Z,0.59
2018-11-29T06:13:51.614Z,0.56
2018-11-29T06:16:19.780Z,0.60
2018-11-29T06:18:48.272Z,0.64
2018-11-29T06:21:16.451Z,0.66
2018-11-29T06:23:44.645Z,0.66
2018-11-29T06:26:12.891Z,0.70
2018-11-29T06:28:41.244Z,0.71
2018-11-29T06:31:09.429Z,0.71
2018-11-29T06:33:37.573Z,0.72
2018-11-29T06:36:05.705Z,0.72
2018-11-29T06:38:34.043Z,0.74
2018-11-29T06:41:02.231Z,0.70
2018-11-29T06:43:38.093Z,0.71
2018-11-29T06:46:07.298Z,0.70
2018-11-29T06:48:35.487Z,0.70
2018-11-29T06:51:03.788Z,0.71
2018-11-29T06:53:37.323Z,0.70
2018-11-29T06:56:05.547Z,0.70
2018-11-29T06:58:33.971Z,0.73
2018-11-29T07:01:02.120Z,0.77
2018-11-29T07:03:30.347Z,0.77
2018-11-29T07:05:58.632Z,0.77
2018-11-29T07:08:26.992Z,0.83
2018-11-29T07:10:55.397Z,0.84
2018-11-29T07:13:23.576Z,0.82
2018-11-29T07:15:51.780Z,0.86
2018-11-29T07:18:20.093Z,0.91
2018-11-29T07:20:59.500Z,0.94
2018-11-29T07:23:28.131Z,0.99
2018-11-29T07:25:56.420Z,0.99
2018-11-29T07:28:24.589Z,0.97
2018-11-29T07:30:52.862Z,0.99
2018-11-29T07:33:21.094Z,1.05
2018-11-29T07:35:49.286Z,1.08
2018-11-29T07:38:17.459Z,1.12
2018-11-29T07:40:45.779Z,0.76
2018-11-29T07:43:13.987Z,1.16
2018-11-29T07:45:42.175Z,1.20
2018-11-29T07:48:10.391Z,1.21
2018-11-29T07:50:38.639Z,1.22
2018-11-29T07:53:06.838Z,1.28
2018-11-29T07:55:54.933Z,1.28
2018-11-29T07:58:23.205Z,1.31
2018-11-29T08:00:51.377Z,1.34
2018-11-29T08:03:20.293Z,1.34
2018-11-29T08:05:48.472Z,1.34
2018-11-29T08:08:16.668Z,1.38
2018-11-29T08:10:44.899Z,1.40
2018-11-29T08:13:13.203Z,1.39
2018-11-29T08:15:41.422Z,1.39
2018-11-29T08:18:09.683Z,1.40
2018-11-29T08:20:37.872Z,1.44
2018-11-29T08:23:06.241Z,1.44
2018-11-29T08:25:34.393Z,1.45
2018-11-29T08:28:02.570Z,1.44
2018-11-29T08:30:30.768Z,1.43
2018-11-29T08:32:58.959Z,1.46
2018-11-29T08:35:28.375Z,1.42
2018-11-29T08:37:56.681Z,1.50
2018-11-29T08:40:25.017Z,1.53
2018-11-29T08:42:53.303Z,1.53
2018-11-29T08:45:21.735Z,1.54
2018-11-29T08:47:49.948Z,1.55
2018-11-29T08:50:18.221Z,1.59
2018-11-29T08:52:46.790Z,1.59
2018-11-29T08:55:17.859Z,1.61
2018-11-29T08:57:46.614Z,1.61
2018-11-29T09:00:18.608Z,1.63
2018-11-29T09:02:47.988Z,1.64
2018-11-29T09:05:19.227Z,1.64
2018-11-29T09:07:48.242Z,1.66
2018-11-29T09:10:18.913Z,1.68
2018-11-29T09:12:47.147Z,1.68
2018-11-29T09:15:16.058Z,1.75
2018-11-29T09:17:46.298Z,1.71
2018-11-29T09:20:18.427Z,1.75
2018-11-29T09:22:47.708Z,1.77
2018-11-29T09:25:16.892Z,1.80
2018-11-29T09:27:45.102Z,1.79
2018-11-29T09:30:19.027Z,1.83
2018-11-29T09:32:48.322Z,1.84
2018-11-29T09:35:16.602Z,1.86
2018-11-29T09:37:44.775Z,1.86
2018-11-29T09:40:15.777Z,1.86
2018-11-29T09:42:44.387Z,1.93
2018-11-29T09:45:14.772Z,1.94
2018-11-29T09:47:43.658Z,1.95
2018-11-29T09:50:12.812Z,1.99
2018-11-29T09:52:41.267Z,2.01
2018-11-29T09:55:11.536Z,2.00
2018-11-29T09:57:39.712Z,2.05
2018-11-29T10:00:27.204Z,2.07
2018-11-29T10:02:54.949Z,2.09
2018-11-29T10:05:23.133Z,2.14
2018-11-29T10:07:51.511Z,2.15
2018-11-29T10:10:19.691Z,2.14
2018-11-29T10:12:47.914Z,2.18
2018-11-29T10:15:16.222Z,2.18
2018-11-29T10:17:44.415Z,2.18
2018-11-29T10:20:13.036Z,2.19
2018-11-29T10:22:41.933Z,2.20
2018-11-29T10:25:11.500Z,2.23
2018-11-29T10:27:39.872Z,2.21
2018-11-29T10:30:17.661Z,2.22
2018-11-29T10:32:45.939Z,2.18
2018-11-29T10:35:14.103Z,2.20
2018-11-29T10:37:42.764Z,2.21
2018-11-29T10:40:11.273Z,2.18
2018-11-29T10:42:39.660Z,2.21
2018-11-29T10:45:16.305Z,2.25
2018-11-29T10:47:51.975Z,2.29
2018-11-29T10:50:14.565Z,2.30
2018-11-29T10:52:42.794Z,2.33
2018-11-29T10:55:14.973Z,2.34
2018-11-29T10:57:43.409Z,2.37
2018-11-29T11:00:20.919Z,2.35
2018-11-29T11:02:54.370Z,2.37
2018-11-29T11:05:22.792Z,2.40
2018-11-29T11:07:51.086Z,2.42
2018-11-29T11:10:19.406Z,2.42
2018-11-29T11:12:48.172Z,2.45
2018-11-29T11:15:16.620Z,2.41
2018-11-29T11:17:44.817Z,2.44
2018-11-29T11:20:13.224Z,2.33
2018-11-29T11:22:41.466Z,2.49
2018-11-29T11:25:10.631Z,2.50
2018-11-29T11:27:38.838Z,2.52
2018-11-29T11:30:14.330Z,2.54
2018-11-29T11:32:48.324Z,2.54
2018-11-29T11:35:16.534Z,2.57
2018-11-29T11:37:44.865Z,2.60
2018-11-29T11:40:14.766Z,2.62
2018-11-29T11:42:43.254Z,2.63
2018-11-29T11:45:19.042Z,2.65
2018-11-29T11:47:47.374Z,2.69
2018-11-29T11:50:17.490Z,2.67
2018-11-29T11:52:45.761Z,2.72
2018-11-29T11:55:18.852Z,2.70
2018-11-29T11:57:45.994Z,2.68
2018-11-29T12:00:15.522Z,2.75
2018-11-29T12:02:44.236Z,2.73
2018-11-29T12:05:12.772Z,2.72
2018-11-29T12:07:41.001Z,2.71
2018-11-29T12:10:10.577Z,2.73
2018-11-29T12:12:38.753Z,2.74
2018-11-29T12:15:08.849Z,2.73
2018-11-29T12:17:37.369Z,2.71
2018-11-29T12:20:08.961Z,2.74
2018-11-29T12:22:37.353Z,2.73
2018-11-29T12:25:06.514Z,2.75
2018-11-29T12:27:34.690Z,2.77
2018-11-29T12:30:03.125Z,2.77
2018-11-29T12:32:31.349Z,2.78
2018-11-29T12:34:59.601Z,2.77
2018-11-29T12:37:27.795Z,2.78
2018-11-29T12:39:56.193Z,2.82
2018-11-29T12:42:25.256Z,2.85
2018-11-29T12:44:53.460Z,2.84
2018-11-29T12:47:21.723Z,2.87
2018-11-29T12:49:49.957Z,2.85
2018-11-29T12:52:18.131Z,2.86
2018-11-29T12:54:46.583Z,2.93
2018-11-29T12:57:14.907Z,2.92
2018-11-29T12:59:43.210Z,2.95
2018-11-29T13:02:13.366Z,2.97
2018-11-29T13:04:42.678Z,2.99
2018-11-29T13:07:11.956Z,3.01
2018-11-29T13:09:40.213Z,2.99
2018-11-29T13:12:08.552Z,3.02
2018-11-29T13:14:36.837Z,3.00
2018-11-29T13:17:05.163Z,3.03
2018-11-29T13:19:35.392Z,3.06
2018-11-29T13:22:03.603Z,3.07
2018-11-29T13:24:32.016Z,3.08
2018-11-29T13:27:00.237Z,3.12
2018-11-29T13:29:28.449Z,3.11
2018-11-29T13:31:56.656Z,3.14
2018-11-29T13:34:24.880Z,3.14
2018-11-29T13:36:53.088Z,3.14
2018-11-29T13:39:21.577Z,3.15
2018-11-29T13:41:49.739Z,3.18
2018-11-29T13:44:18.014Z,3.17
2018-11-29T13:46:46.278Z,3.21
2018-11-29T13:49:14.522Z,3.13
2018-11-29T13:51:42.704Z,3.22
2018-11-29T13:54:11.021Z,3.20
2018-11-29T13:56:44.695Z,3.22
2018-11-29T13:59:12.886Z,3.23
2018-11-29T14:01:41.230Z,3.25
2018-11-29T14:04:09.425Z,3.29
2018-11-29T14:06:37.607Z,3.31
2018-11-29T14:09:08.290Z,3.30
2018-11-29T14:11:36.507Z,3.33
2018-11-29T14:14:07.893Z,3.33
2018-11-29T14:16:32.997Z,3.31
2018-11-29T14:19:01.266Z,3.37
2018-11-29T14:21:36.172Z,3.35
2018-11-29T14:24:04.340Z,3.38
2018-11-29T14:26:32.545Z,3.37
2018-11-29T14:29:00.723Z,3.41
2018-11-29T14:31:28.895Z,3.40
2018-11-29T14:33:57.274Z,3.41
2018-11-29T14:36:25.452Z,3.42
2018-11-29T14:38:53.669Z,3.45
2018-11-29T14:41:21.895Z,3.47
2018-11-29T14:43:50.101Z,3.45
2018-11-29T14:46:18.601Z,3.42
2018-11-29T14:48:46.799Z,3.43
2018-11-29T14:51:14.997Z,3.44
2018-11-29T14:53:43.321Z,3.40
2018-11-29T14:56:11.508Z,3.44
2018-11-29T14:58:40.337Z,3.37
2018-11-29T15:01:08.631Z,3.40
2018-11-29T15:03:36.847Z,3.40
2018-11-29T15:06:05.131Z,3.40
2018-11-29T15:08:33.319Z,3.39
2018-11-29T15:11:01.694Z,3.38
2018-11-29T15:13:30.556Z,3.40
2018-11-29T15:15:58.840Z,3.42
2018-11-29T15:18:27.127Z,3.41
2018-11-29T15:20:55.302Z,3.43
2018-11-29T15:23:23.515Z,3.41
2018-11-29T15:25:52.566Z,3.41
2018-11-29T15:28:20.777Z,3.44
2018-11-29T15:30:49.004Z,3.44
2018-11-29T15:33:17.300Z,3.46
2018-11-29T15:35:45.508Z,3.47
2018-11-29T15:38:13.848Z,3.37
2018-11-29T15:40:42.998Z,3.42
2018-11-29T15:43:11.341Z,3.40
2018-11-29T15:45:39.502Z,3.50
2018-11-29T15:48:07.701Z,3.37
2018-11-29T15:50:35.888Z,3.46
2018-11-29T15:53:04.081Z,3.51
2018-11-29T15:55:32.210Z,3.48
2018-11-29T15:58:00.708Z,3.50
2018-11-29T16:00:29.603Z,3.57
2018-11-29T16:02:58.957Z,3.53
2018-11-29T16:05:27.217Z,3.59
2018-11-29T16:07:55.396Z,3.64
2018-11-29T16:10:24.521Z,3.61
2018-11-29T16:12:52.759Z,3.64
2018-11-29T16:15:21.442Z,3.63
2018-11-29T16:17:50.511Z,3.63
2018-11-29T16:20:23.671Z,3.67
2018-11-29T16:22:51.894Z,3.75
2018-11-29T16:25:20.303Z,3.70
2018-11-29T16:27:48.558Z,3.76
2018-11-29T16:30:26.072Z,3.75
2018-11-29T16:32:54.967Z,3.80
2018-11-29T16:35:23.321Z,3.76
2018-11-29T16:37:51.720Z,3.84
2018-11-29T16:40:19.925Z,3.75
2018-11-29T16:42:48.106Z,3.85
2018-11-29T16:45:16.288Z,3.82
2018-11-29T16:47:44.483Z,3.93
2018-11-29T16:50:15.672Z,3.91
2018-11-29T16:52:43.876Z,3.90
2018-11-29T16:55:12.515Z,3.91
2018-11-29T16:57:44.638Z,3.97
2018-11-29T17:00:17.761Z,3.99
2018-11-29T17:02:45.958Z,4.05
2018-11-29T17:05:14.592Z,3.97
2018-11-29T17:07:42.873Z,4.01
2018-11-29T17:10:12.258Z,3.97
2018-11-29T17:12:40.722Z,4.11
2018-11-29T17:15:10.717Z,4.01
2018-11-29T17:17:38.907Z,4.09
2018-11-29T17:20:11.762Z,4.05
2018-11-29T17:22:41.130Z,4.02
2018-11-29T17:25:11.126Z,3.99
2018-11-29T17:27:39.454Z,3.98
2018-11-29T17:30:17.458Z,3.98
2018-11-29T17:32:45.810Z,3.94
2018-11-29T17:35:13.983Z,3.96
2018-11-29T17:37:42.214Z,3.93
2018-11-29T17:40:13.544Z,3.94
2018-11-29T17:42:41.842Z,3.99
2018-11-29T17:45:11.262Z,4.11
2018-11-29T17:47:39.620Z,4.05
2018-11-29T17:50:11.382Z,3.92
2018-11-29T17:52:39.727Z,4.05
2018-11-29T17:55:07.950Z,4.14
2018-11-29T17:57:36.138Z,4.14
2018-11-29T18:00:07.200Z,4.16
2018-11-29T18:02:35.574Z,4.09
2018-11-29T18:05:03.838Z,4.13
2018-11-29T18:07:32.379Z,4.05
2018-11-29T18:10:00.802Z,4.08
2018-11-29T18:12:30.014Z,4.07
2018-11-29T18:14:59.191Z,4.09
2018-11-29T18:17:28.315Z,4.09
2018-11-29T18:20:04.861Z,4.07
2018-11-29T18:22:33.836Z,4.06
2018-11-29T18:25:02.853Z,4.11
2018-11-29T18:27:31.717Z,4.00
2018-11-29T18:29:59.904Z,3.99
2018-11-29T18:32:28.174Z,3.91
2018-11-29T18:34:56.487Z,4.02
2018-11-29T18:37:24.677Z,4.02
2018-11-29T18:39:52.875Z,4.16
2018-11-29T18:42:21.807Z,4.01
2018-11-29T18:44:50.090Z,4.08
2018-11-29T18:47:18.290Z,4.09
2018-11-29T18:49:47.275Z,4.10
2018-11-29T18:52:15.586Z,4.10
2018-11-29T18:54:43.856Z,4.16
2018-11-29T18:57:22.342Z,4.19
2018-11-29T18:59:50.599Z,4.18
2018-11-29T19:02:18.805Z,4.19
2018-11-29T19:04:47.064Z,4.12
2018-11-29T19:07:15.379Z,4.33
2018-11-29T19:09:43.830Z,4.26
2018-11-29T19:12:12.161Z,4.21
2018-11-29T19:14:42.859Z,4.26
2018-11-29T19:17:11.109Z,4.29
2018-11-29T19:19:39.495Z,4.29
2018-11-29T19:22:08.685Z,4.28
2018-11-29T19:24:36.985Z,4.25
2018-11-29T19:27:05.411Z,4.26
2018-11-29T19:29:39.504Z,4.28
2018-11-29T19:32:07.736Z,4.14
2018-11-29T19:34:36.197Z,4.23
2018-11-29T19:37:04.408Z,4.13
2018-11-29T19:39:32.683Z,4.10
2018-11-29T19:42:00.893Z,4.13
2018-11-29T19:44:29.047Z,4.17
2018-11-29T19:47:02.038Z,4.16
2018-11-29T19:49:30.612Z,4.23
2018-11-29T19:51:58.989Z,4.19
2018-11-29T19:54:27.218Z,4.19
2018-11-29T19:56:55.497Z,4.20
2018-11-29T19:59:24.180Z,4.29
2018-11-29T20:01:52.443Z,4.41
2018-11-29T20:04:20.646Z,4.36
2018-11-29T20:06:48.980Z,4.39
2018-11-29T20:09:17.189Z,4.35
2018-11-29T20:11:45.607Z,4.46
2018-11-29T20:14:13.850Z,4.59
2018-11-29T20:16:42.373Z,4.60
2018-11-29T20:19:10.581Z,4.67
2018-11-29T20:21:38.766Z,4.67
2018-11-29T20:24:06.974Z,4.68
2018-11-29T20:26:35.224Z,4.67
2018-11-29T20:29:03.781Z,4.82
2018-11-29T20:31:32.158Z,4.49
2018-11-29T20:34:00.385Z,4.85
2018-11-29T20:36:28.601Z,4.77
2018-11-29T20:38:57.149Z,4.78
2018-11-29T20:41:25.946Z,4.85
2018-11-29T20:43:54.198Z,4.85
2018-11-29T20:46:22.426Z,4.90
2018-11-29T20:48:50.684Z,4.97
2018-11-29T20:51:18.827Z,4.90
2018-11-29T20:53:47.122Z,4.86
2018-11-29T20:56:15.690Z,4.91
2018-11-29T20:58:43.991Z,4.90
2018-11-29T21:01:12.383Z,4.81
2018-11-29T21:03:40.636Z,4.82
2018-11-29T21:06:10.861Z,4.86
2018-11-29T21:08:39.126Z,4.84
2018-11-29T21:11:07.870Z,4.79
2018-11-29T21:13:36.208Z,4.77
2018-11-29T21:16:04.467Z,4.78
2018-11-29T21:18:32.738Z,4.72
2018-11-29T21:21:00.917Z,4.77
2018-11-29T21:23:29.251Z,4.74
2018-11-29T21:25:57.532Z,4.68
2018-11-29T21:28:25.681Z,4.69
2018-11-29T21:30:53.857Z,4.66
2018-11-29T21:33:22.138Z,4.67
2018-11-29T21:35:50.350Z,4.60
2018-11-29T21:38:19.674Z,4.62
2018-11-29T21:40:56.723Z,4.70
2018-11-29T21:43:24.914Z,4.68
2018-11-29T21:45:53.111Z,4.65
2018-11-29T21:48:21.373Z,4.67
2018-11-29T21:50:49.584Z,4.71
2018-11-29T21:53:17.790Z,4.65
2018-11-29T21:55:46.049Z,4.70
2018-11-29T21:58:14.234Z,4.64
2018-11-29T22:00:44.060Z,4.70
2018-11-29T22:04:24.315Z,4.70
2018-11-29T22:06:52.689Z,4.76
2018-11-29T22:09:21.125Z,4.78
2018-11-29T22:11:49.439Z,4.82
2018-11-29T22:14:20.349Z,4.79
2018-11-29T22:16:48.710Z,4.78
2018-11-29T22:19:16.945Z,4.85
2018-11-29T22:21:45.175Z,4.82
2018-11-29T22:24:15.443Z,4.80
2018-11-29T22:27:11.133Z,4.83
2018-11-29T22:29:41.280Z,4.79
2018-11-29T22:32:09.550Z,4.76
2018-11-29T22:34:46.150Z,4.82
2018-11-29T22:37:15.181Z,4.74
2018-11-29T22:39:43.503Z,4.71
2018-11-29T22:42:19.934Z,4.73
2018-11-29T22:44:50.214Z,4.72
2018-11-29T23:03:36.123Z,4.88
2018-11-29T23:06:07.072Z,4.89
2018-11-29T23:08:35.669Z,4.83
2018-11-29T23:11:03.958Z,4.90
2018-11-29T23:13:32.111Z,4.97
2018-11-29T23:16:00.325Z,5.00
2018-11-29T23:18:28.765Z,5.06
2018-11-29T23:20:56.993Z,4.98
2018-11-29T23:23:25.191Z,4.97
2018-11-29T23:25:53.393Z,5.03
2018-11-29T23:28:23.105Z,4.98
2018-11-29T23:30:51.322Z,5.02
2018-11-29T23:33:20.030Z,5.10
2018-11-29T23:35:48.245Z,5.04
2018-11-29T23:38:16.782Z,5.05
2018-11-29T23:40:45.644Z,5.09
2018-11-29T23:43:16.067Z,5.02
2018-11-29T23:45:44.327Z,5.05
2018-11-29T23:48:12.543Z,5.04
2018-11-29T23:50:40.873Z,5.02
2018-11-29T23:53:09.275Z,5.02
2018-11-29T23:58:11.826Z,4.98
